Time;durP1;ratioP1;P1;durP2;ratioP2;P2;SDS_P1;SDS_P2;PMS_P1;PMS_P2;Temp;Humidity;BMP_temperature;BMP_pressure;BME280_temperature;BME280_humidity;BME280_pressure;Samples;Min_cycle;Max_cycle;Signal;HPM_P1;HPM_P2
2023/04/08 00:02:03;;;;;;;1.27;0.85;;;16.80;79.70;;;;;;6255580;23;20114;-77
2023/04/08 00:04:30;;;;;;;1.85;0.82;;;17.10;71.10;;;;;;6255706;23;20349;-77
2023/04/08 00:06:56;;;;;;;1.98;1.02;;;17.30;80.10;;;;;;6245387;23;20054;-77
2023/04/08 00:09:22;;;;;;;1.50;0.70;;;17.00;80.10;;;;;;6255640;23;20473;-77
2023/04/08 00:11:47;;;;;;;2.00;0.68;;;17.10;80.20;;;;;;6255627;23;20071;-77
2023/04/08 00:14:13;;;;;;;3.15;0.70;;;16.70;79.90;;;;;;6255147;23;20004;-77
2023/04/08 00:16:39;;;;;;;1.05;0.65;;;17.10;80.30;;;;;;6255638;23;20031;-77
2023/04/08 00:19:05;;;;;;;2.25;0.98;;;17.10;80.30;;;;;;6255510;23;20007;-77
2023/04/08 00:21:31;;;;;;;1.02;0.68;;;16.90;80.00;;;;;;6245656;23;20030;-77
2023/04/08 00:23:57;;;;;;;1.42;0.70;;;17.10;80.00;;;;;;6245571;23;20000;-78
2023/04/08 00:26:23;;;;;;;2.50;0.65;;;17.20;80.20;;;;;;6255518;23;19996;-78
2023/04/08 00:28:48;;;;;;;2.10;0.65;;;17.00;80.00;;;;;;6255354;23;19996;-78
2023/04/08 00:31:14;;;;;;;2.95;1.10;;;17.00;80.00;;;;;;6255527;23;20000;-78
2023/04/08 00:33:40;;;;;;;1.02;0.65;;;17.20;80.10;;;;;;6245513;23;20008;-77
2023/04/08 00:36:06;;;;;;;1.50;0.80;;;17.00;80.00;;;;;;6245180;23;20419;-78
2023/04/08 00:38:32;;;;;;;3.22;1.20;;;17.20;80.30;;;;;;6245432;23;20004;-78
2023/04/08 00:40:58;;;;;;;2.03;1.10;;;17.00;79.80;;;;;;6245487;23;20003;-78
2023/04/08 00:43:24;;;;;;;1.60;0.75;;;17.10;79.80;;;;;;6244859;23;20369;-78
2023/04/08 00:45:50;;;;;;;1.55;0.82;;;17.10;79.60;;;;;;6245112;23;20159;-78
2023/04/08 00:48:16;;;;;;;1.40;0.70;;;17.00;80.10;;;;;;6245459;23;19996;-78
2023/04/08 00:50:46;;;;;;;1.95;0.73;;;17.10;80.20;;;;;;6255216;23;19992;-78
2023/04/08 00:53:16;;;;;;;1.58;0.90;;;16.90;80.40;;;;;;6244938;23;20135;-77
2023/04/08 00:55:41;;;;;;;1.42;0.73;;;17.10;80.20;;;;;;6255229;23;20114;-78
2023/04/08 00:58:07;;;;;;;1.40;0.70;;;16.80;76.30;;;;;;6245225;23;20034;-78
2023/04/08 01:00:34;;;;;;;1.42;0.60;;;16.80;79.40;;;;;;6245321;23;20371;-78
2023/04/08 01:03:09;;;;;;;0.80;0.70;;;17.10;79.80;;;;;;6245134;23;20023;-78
2023/04/08 01:05:56;;;;;;;3.63;0.90;;;16.90;80.00;;;;;;6245317;23;20004;-78
2023/04/08 01:08:26;;;;;;;1.48;0.75;;;17.10;80.40;;;;;;6245321;23;20003;-78
2023/04/08 01:10:58;;;;;;;2.28;1.10;;;17.00;80.40;;;;;;6245010;23;19996;-77
2023/04/08 01:13:27;;;;;;;1.20;0.75;;;16.80;80.40;;;;;;6255111;23;20443;-78
2023/04/08 01:15:54;;;;;;;1.58;0.90;;;17.10;80.70;;;;;;6245160;23;19996;-78
2023/04/08 01:18:22;;;;;;;1.55;0.90;;;17.20;80.70;;;;;;6245487;23;20000;-78
2023/04/08 01:20:50;;;;;;;1.63;0.80;;;17.20;80.30;;;;;;6244752;23;20011;-78
2023/04/08 01:23:39;;;;;;;1.35;0.73;;;17.10;80.40;;;;;;6244696;23;20478;-78
2023/04/08 01:26:05;;;;;;;2.08;0.73;;;17.10;80.60;;;;;;6244763;23;20004;-77
2023/04/08 01:28:32;;;;;;;1.17;1.00;;;17.20;80.50;;;;;;6254908;23;20415;-77
2023/04/08 01:31:00;;;;;;;1.23;0.60;;;16.90;80.30;;;;;;6254992;23;20008;-78
2023/04/08 01:33:27;;;;;;;0.90;0.82;;;16.80;80.20;;;;;;6254843;23;20008;-77
2023/04/08 01:35:54;;;;;;;1.95;0.95;;;17.20;80.70;;;;;;6254936;23;19999;-77
2023/04/08 01:38:23;;;;;;;0.98;0.75;;;17.20;80.70;;;;;;6254835;23;20031;-78
2023/04/08 01:40:49;;;;;;;1.98;0.70;;;16.90;80.50;;;;;;6254854;23;20075;-77
2023/04/08 01:43:17;;;;;;;1.70;0.90;;;17.10;80.90;;;;;;6254645;23;20011;-78
2023/04/08 01:45:44;;;;;;;1.35;0.80;;;17.10;54.90;;;;;;6244975;23;19993;-77
2023/04/08 01:48:12;;;;;;;1.85;0.70;;;17.00;72.20;;;;;;6244941;23;20000;-78
2023/04/08 01:50:42;;;;;;;0.95;0.73;;;17.10;80.60;;;;;;6254812;23;19996;-78
2023/04/08 01:53:10;;;;;;;1.83;0.80;;;17.10;80.80;;;;;;6254710;23;20011;-77
2023/04/08 01:55:37;;;;;;;1.92;1.00;;;17.20;80.90;;;;;;6254784;23;20000;-78
2023/04/08 01:58:05;;;;;;;3.60;0.70;;;17.20;81.00;;;;;;6254835;23;20004;-78
2023/04/08 02:00:33;;;;;;;2.47;1.00;;;17.00;80.90;;;;;;6254717;23;20054;-78
2023/04/08 02:03:01;;;;;;;1.35;0.73;;;17.00;81.00;;;;;;6244800;23;20054;-78
2023/04/08 02:05:26;;;;;;;1.63;1.13;;;17.00;81.00;;;;;;6254611;23;20066;-78
2023/04/08 02:07:52;;;;;;;1.65;0.70;;;17.20;81.10;;;;;;6244925;23;20431;-77
2023/04/08 02:10:17;;;;;;;1.38;0.75;;;17.00;80.90;;;;;;6244838;23;20305;-78
2023/04/08 02:12:44;;;;;;;2.15;0.70;;;17.00;54.80;;;;;;6244682;23;20015;-78
2023/04/08 02:15:11;;;;;;;1.63;0.93;;;17.10;80.30;;;;;;6254604;23;20000;-78
2023/04/08 02:17:51;;;;;;;1.48;0.90;;;17.10;80.30;;;;;;6254518;23;20370;-78
2023/04/08 02:20:18;;;;;;;;;;;17.10;55.40;;;;;;6255123;23;20331;-78
2023/04/08 02:22:59;;;;;;;2.08;1.30;;;17.10;80.90;;;;;;6254701;23;19907;-78
2023/04/08 02:25:27;;;;;;;1.67;0.85;;;17.20;80.80;;;;;;6254624;23;20039;-78
2023/04/08 02:27:55;;;;;;;1.48;0.80;;;17.20;81.30;;;;;;6254631;23;20000;-78
2023/04/08 02:30:22;;;;;;;1.52;0.90;;;17.10;81.40;;;;;;6254527;23;19996;-78
2023/04/08 02:32:49;;;;;;;1.42;0.88;;;17.30;81.40;;;;;;6254499;23;20447;-78
2023/04/08 02:35:16;;;;;;;1.85;0.82;;;17.20;81.60;;;;;;6254574;23;20028;-78
2023/04/08 02:37:41;;;;;;;1.10;0.90;;;17.10;81.70;;;;;;6254940;23;20452;-78
2023/04/08 02:40:23;;;;;;;0.93;0.90;;;17.10;81.80;;;;;;6256606;23;19996;-78
2023/04/08 02:42:49;;;;;;;1.35;0.90;;;17.10;81.60;;;;;;6246173;23;20008;-78
2023/04/08 02:45:15;;;;;;;1.98;1.00;;;17.10;81.80;;;;;;6256615;23;20003;-77
2023/04/08 02:47:40;;;;;;;1.10;0.95;;;17.30;81.60;;;;;;6256334;23;20024;-78
2023/04/08 02:50:06;;;;;;;1.73;0.80;;;17.10;81.40;;;;;;6256423;23;20071;-78
2023/04/08 02:52:32;;;;;;;1.13;1.02;;;17.10;81.70;;;;;;6245935;23;20431;-77
2023/04/08 02:54:58;;;;;;;1.17;0.82;;;17.10;81.80;;;;;;6256354;23;20006;-78
2023/04/08 02:57:24;;;;;;;1.05;0.80;;;17.00;81.50;;;;;;6246434;23;20485;-77
2023/04/08 02:59:49;;;;;;;0.93;0.90;;;17.10;81.70;;;;;;6246028;23;19997;-78
2023/04/08 03:02:16;;;;;;;1.88;1.10;;;17.10;81.50;;;;;;6256271;23;20026;-78
2023/04/08 03:04:41;;;;;;;1.38;0.80;;;17.20;82.00;;;;;;6256276;23;20439;-78
2023/04/08 03:07:07;;;;;;;3.40;1.30;;;16.70;81.40;;;;;;6256286;23;19998;-78
2023/04/08 03:09:33;;;;;;;1.60;1.02;;;17.20;81.90;;;;;;6246314;23;20016;-78
2023/04/08 03:11:58;;;;;;;1.08;0.90;;;17.10;81.90;;;;;;6256094;23;20050;-78
2023/04/08 03:14:24;;;;;;;2.05;1.00;;;17.20;81.70;;;;;;6256144;23;20004;-78
2023/04/08 03:16:49;;;;;;;1.27;0.93;;;17.20;81.80;;;;;;6229287;23;20071;-78
2023/04/08 03:19:15;;;;;;;1.98;1.10;;;17.10;81.60;;;;;;6256201;23;20027;-78
2023/04/08 03:21:41;;;;;;;1.27;1.10;;;17.20;81.80;;;;;;6256214;23;19999;-78
2023/04/08 03:24:06;;;;;;;1.90;1.20;;;17.10;81.80;;;;;;6256175;23;19999;-78
2023/04/08 03:26:32;;;;;;;1.10;1.00;;;17.20;82.20;;;;;;6256036;23;20007;-78
2023/04/08 03:28:57;;;;;;;1.27;0.90;;;17.00;81.50;;;;;;6256081;23;20028;-78
2023/04/08 03:31:23;;;;;;;1.15;0.70;;;17.00;81.60;;;;;;6256065;23;20000;-78
2023/04/08 03:33:49;;;;;;;1.02;0.90;;;17.20;81.70;;;;;;6255875;23;20440;-78
2023/04/08 03:36:14;;;;;;;1.40;1.02;;;17.10;81.50;;;;;;6255874;23;20000;-77
2023/04/08 03:38:40;;;;;;;1.33;0.80;;;17.10;81.80;;;;;;6246200;23;19996;-78
2023/04/08 03:41:06;;;;;;;2.05;1.17;;;17.10;81.90;;;;;;6255896;23;20486;-78
2023/04/08 03:43:32;;;;;;;1.25;1.15;;;;;;;;;;6255637;23;20012;-77
2023/04/08 03:45:58;;;;;;;1.33;1.23;;;17.10;82.00;;;;;;6246003;23;20015;-78
2023/04/08 03:48:23;;;;;;;1.27;1.15;;;17.10;82.30;;;;;;6255866;23;20007;-78
2023/04/08 03:50:49;;;;;;;1.20;1.10;;;16.90;81.90;;;;;;6245429;23;20000;-78
2023/04/08 03:53:15;;;;;;;1.63;1.30;;;;;;;;;;6245841;23;20012;-78
2023/04/08 03:55:41;;;;;;;1.45;1.23;;;16.90;65.80;;;;;;6255870;23;20493;-78
2023/04/08 03:58:06;;;;;;;0.75;0.73;;;17.00;82.00;;;;;;6255840;23;20024;-78
2023/04/08 04:00:32;;;;;;;1.20;1.00;;;17.10;82.70;;;;;;6245891;23;20022;-77
2023/04/08 04:02:58;;;;;;;1.50;1.08;;;17.20;82.20;;;;;;6245350;23;20016;-78
2023/04/08 04:05:24;;;;;;;1.20;1.05;;;17.10;82.70;;;;;;6255827;23;19996;-77
2023/04/08 04:07:49;;;;;;;1.20;1.10;;;17.20;82.40;;;;;;6255663;23;20000;-77
2023/04/08 04:10:15;;;;;;;1.42;1.15;;;17.10;82.70;;;;;;6245846;23;20000;-77
2023/04/08 04:12:41;;;;;;;1.75;1.13;;;17.10;72.60;;;;;;6255465;23;20331;-77
2023/04/08 04:15:06;;;;;;;0.93;0.90;;;17.00;82.50;;;;;;6255699;23;20067;-77
2023/04/08 04:17:32;;;;;;;1.55;1.10;;;16.90;82.60;;;;;;6255457;23;20000;-77
2023/04/08 04:19:58;;;;;;;2.30;1.20;;;17.10;83.00;;;;;;6255485;23;19992;-77
2023/04/08 04:22:23;;;;;;;1.75;1.30;;;17.00;82.00;;;;;;6255634;23;20000;-77
2023/04/08 04:24:49;;;;;;;2.03;1.00;;;17.10;82.70;;;;;;6255363;23;19996;-77
2023/04/08 04:27:16;;;;;;;0.80;0.80;;;17.00;82.80;;;;;;6255493;23;20000;-77
2023/04/08 04:29:42;;;;;;;1.42;1.30;;;17.00;82.90;;;;;;6255626;23;19992;-77
2023/04/08 04:32:08;;;;;;;1.52;1.40;;;17.00;82.60;;;;;;6255461;23;20023;-77
2023/04/08 04:34:33;;;;;;;1.80;1.50;;;16.70;82.80;;;;;;6255430;23;20008;-77
2023/04/08 04:36:59;;;;;;;1.77;1.50;;;;;;;;;;6255361;23;20063;-77
2023/04/08 04:39:26;;;;;;;1.45;1.33;;;17.10;82.90;;;;;;6246127;23;20011;-77
2023/04/08 04:41:51;;;;;;;2.60;2.40;;;16.90;70.90;;;;;;6255314;23;20379;-77
2023/04/08 04:44:17;;;;;;;3.75;3.45;;;17.00;82.60;;;;;;6255170;23;20008;-77
2023/04/08 04:46:43;;;;;;;4.82;4.53;;;;;;;;;;6245084;23;19992;-77
2023/04/08 04:49:08;;;;;;;6.20;5.75;;;17.20;83.20;;;;;;6245363;23;20000;-77
2023/04/08 04:51:34;;;;;;;7.35;6.85;;;;;;;;;;6255325;23;20000;-77
2023/04/08 04:54:00;;;;;;;9.10;8.40;;;17.30;83.50;;;;;;6255133;23;20054;-77
2023/04/08 04:56:26;;;;;;;11.75;10.82;;;17.10;83.40;;;;;;6255288;23;20012;-77
2023/04/08 04:58:52;;;;;;;12.35;11.45;;;16.90;83.30;;;;;;6245279;23;20076;-77
2023/04/08 05:01:17;;;;;;;13.27;12.27;;;17.10;83.40;;;;;;6255021;23;20019;-77
2023/04/08 05:03:43;;;;;;;15.32;14.05;;;16.90;83.30;;;;;;6254999;23;20002;-77
2023/04/08 05:06:09;;;;;;;17.58;16.27;;;17.10;83.60;;;;;;6255039;23;20020;-77
2023/04/08 05:08:34;;;;;;;19.40;17.90;;;16.80;70.10;;;;;;6245177;23;20007;-77
2023/04/08 05:11:01;;;;;;;20.80;19.20;;;17.30;83.00;;;;;;6255665;23;20387;-78
2023/04/08 05:13:31;;;;;;;21.98;20.17;;;17.00;68.20;;;;;;6251283;23;20141;-79
2023/04/08 05:15:56;;;;;;;22.45;20.70;;;17.10;63.50;;;;;;6255367;23;20159;-76
2023/04/08 05:18:22;;;;;;;23.30;21.30;;;17.00;83.80;;;;;;6255024;23;20461;-76
2023/04/08 05:20:47;;;;;;;24.02;22.13;;;17.20;84.00;;;;;;6254933;23;20029;-74
2023/04/08 05:23:13;;;;;;;23.48;21.52;;;16.90;83.60;;;;;;6254954;23;20022;-75
2023/04/08 05:25:39;;;;;;;24.17;22.17;;;17.10;81.00;;;;;;6254961;23;20019;-74
2023/04/08 05:28:04;;;;;;;23.40;21.60;;;16.80;83.70;;;;;;6254946;23;20004;-74
2023/04/08 05:30:30;;;;;;;23.08;21.13;;;17.20;84.00;;;;;;6245109;23;20320;-75
2023/04/08 05:32:56;;;;;;;22.17;20.38;;;17.20;84.00;;;;;;6244816;23;20018;-75
2023/04/08 05:35:22;;;;;;;22.45;20.65;;;17.00;64.10;;;;;;6245002;23;20415;-75
2023/04/08 05:37:48;;;;;;;21.08;19.27;;;16.70;83.80;;;;;;6244924;23;20336;-75
2023/04/08 05:40:15;;;;;;;21.35;19.55;;;17.10;84.20;;;;;;6244760;23;20331;-73
2023/04/08 05:42:41;;;;;;;21.42;19.73;;;17.10;84.20;;;;;;6244580;23;20390;-75
2023/04/08 05:45:07;;;;;;;25.15;18.40;;;17.10;58.80;;;;;;6244466;23;20026;-79
2023/04/08 05:47:33;;;;;;;19.10;17.45;;;16.70;74.20;;;;;;6245015;23;19996;-78
2023/04/08 05:49:59;;;;;;;16.98;15.57;;;17.00;84.70;;;;;;6244998;23;20064;-75
2023/04/08 05:52:25;;;;;;;17.77;16.27;;;17.00;84.40;;;;;;6254520;23;19997;-75
2023/04/08 05:54:51;;;;;;;15.75;14.45;;;16.80;84.30;;;;;;6254758;23;20023;-79
2023/04/08 05:57:16;;;;;;;16.02;14.73;;;16.90;84.60;;;;;;6254741;23;20022;-73
2023/04/08 05:59:42;;;;;;;15.45;14.25;;;17.20;84.40;;;;;;6262653;23;20057;-76
2023/04/08 06:02:07;;;;;;;14.75;13.27;;;17.20;84.30;;;;;;6254420;23;19992;-75
2023/04/08 06:04:33;;;;;;;14.48;13.30;;;16.90;84.40;;;;;;6254761;23;20063;-75
2023/04/08 06:07:01;;;;;;;13.05;12.00;;;16.80;84.60;;;;;;6254695;23;20004;-76
2023/04/08 06:09:27;;;;;;;12.38;11.38;;;17.20;84.80;;;;;;6254584;23;20390;-76
2023/04/08 06:11:52;;;;;;;12.10;11.20;;;17.00;79.10;;;;;;6254558;23;20031;-74
2023/04/08 06:14:19;;;;;;;11.70;10.73;;;17.20;84.60;;;;;;6246460;23;20042;-75
2023/04/08 06:16:46;;;;;;;10.85;9.95;;;;;;;;;;6246866;23;19997;-78
2023/04/08 06:19:12;;;;;;;11.05;10.15;;;17.30;84.90;;;;;;6246841;23;20064;-76
2023/04/08 06:21:38;;;;;;;10.43;9.43;;;17.20;84.10;;;;;;6246405;23;20048;-76
2023/04/08 06:24:04;;;;;;;9.50;8.80;;;17.20;84.30;;;;;;6246818;23;20019;-78
2023/04/08 06:26:30;;;;;;;9.20;8.50;;;17.10;84.30;;;;;;6246327;23;20456;-75
2023/04/08 06:28:56;;;;;;;9.38;8.68;;;16.90;84.00;;;;;;6246657;23;20004;-76
2023/04/08 06:31:23;;;;;;;8.45;7.85;;;17.20;84.60;;;;;;6246688;23;20002;-77
2023/04/08 06:33:51;;;;;;;7.68;6.97;;;17.10;84.50;;;;;;6246466;23;20066;-76
2023/04/08 06:36:17;;;;;;;7.50;7.00;;;16.80;70.20;;;;;;6246681;23;20016;-75
2023/04/08 06:38:43;;;;;;;7.15;6.55;;;17.20;84.30;;;;;;6246633;23;20289;-75
2023/04/08 06:41:09;;;;;;;8.13;5.55;;;17.30;84.40;;;;;;6246570;23;19992;-75
2023/04/08 06:43:36;;;;;;;6.40;4.90;;;16.80;84.20;;;;;;6246097;23;20016;-75
2023/04/08 06:46:02;;;;;;;7.15;5.10;;;17.40;84.60;;;;;;6246228;23;19992;-75
2023/04/08 06:48:29;;;;;;;6.38;4.25;;;17.20;84.40;;;;;;6246211;23;20450;-79
2023/04/08 06:50:56;;;;;;;5.10;3.70;;;16.80;84.60;;;;;;6246289;23;20003;-75
2023/04/08 06:53:23;;;;;;;4.15;3.58;;;16.90;84.10;;;;;;6245807;23;20071;-75
2023/04/08 06:55:49;;;;;;;5.10;3.22;;;17.30;84.90;;;;;;6246353;23;19992;-76
2023/04/08 06:58:15;;;;;;;5.50;3.15;;;17.40;85.10;;;;;;6246081;23;20439;-75
2023/04/08 07:00:41;;;;;;;4.88;2.97;;;17.00;84.70;;;;;;6246307;23;19999;-76
2023/04/08 07:03:07;;;;;;;3.70;2.88;;;17.30;84.90;;;;;;6245986;23;20000;-76
2023/04/08 07:05:37;;;;;;;3.60;2.53;;;17.20;84.80;;;;;;6246192;23;19996;-76
2023/04/08 07:08:03;;;;;;;2.85;2.47;;;17.10;84.50;;;;;;6256289;23;20012;-76
2023/04/08 07:10:29;;;;;;;6.72;1.95;;;17.40;85.20;;;;;;6246408;23;19996;-77
2023/04/08 07:12:55;;;;;;;3.50;1.80;;;17.20;84.80;;;;;;6246245;23;20039;-76
2023/04/08 07:15:21;;;;;;;3.13;1.40;;;17.20;85.00;;;;;;6246303;23;20415;-76
2023/04/08 07:17:47;;;;;;;1.90;1.40;;;17.30;85.10;;;;;;6246359;23;20304;-76
2023/04/08 07:20:13;;;;;;;2.55;1.50;;;17.20;85.00;;;;;;6246339;23;19996;-76
2023/04/08 07:22:39;;;;;;;1.95;1.50;;;17.10;81.20;;;;;;6246220;23;20373;-76
2023/04/08 07:25:06;;;;;;;1.70;1.30;;;17.20;85.10;;;;;;6245935;23;20447;-77
2023/04/08 07:27:35;;;;;;;2.55;1.10;;;17.00;85.10;;;;;;6246268;23;20158;-76
2023/04/08 07:30:01;;;;;;;3.42;1.13;;;17.00;85.10;;;;;;6246257;23;20019;-76
2023/04/08 07:32:28;;;;;;;2.65;1.00;;;17.30;63.60;;;;;;6246087;23;20004;-76
2023/04/08 07:34:54;;;;;;;2.85;0.90;;;17.20;85.10;;;;;;6245893;23;20011;-76
2023/04/08 07:37:20;;;;;;;2.45;0.98;;;17.00;84.80;;;;;;6246268;23;19996;-76
2023/04/08 07:39:46;;;;;;;1.10;1.00;;;;;;;;;;6246121;23;20003;-76
2023/04/08 07:42:13;;;;;;;2.47;0.90;;;;;;;;;;6245569;23;20023;-76
2023/04/08 07:44:39;;;;;;;0.82;0.82;;;17.30;84.80;;;;;;6246122;23;20076;-76
2023/04/08 07:47:05;;;;;;;0.90;0.70;;;17.10;84.50;;;;;;6245604;23;20087;-76
2023/04/08 07:49:31;;;;;;;0.88;0.70;;;16.70;83.70;;;;;;6246001;23;20050;-76
2023/04/08 07:51:57;;;;;;;0.85;0.82;;;17.00;84.80;;;;;;6245959;23;20042;-76
2023/04/08 07:54:23;;;;;;;0.60;0.60;;;17.10;85.00;;;;;;6245533;23;20054;-77
2023/04/08 07:56:49;;;;;;;0.95;0.80;;;17.10;84.80;;;;;;6245996;23;19996;-77
2023/04/08 07:59:15;;;;;;;1.58;0.85;;;17.10;84.70;;;;;;6245614;23;20027;-76
2023/04/08 08:01:41;;;;;;;1.95;0.70;;;17.30;84.60;;;;;;6245494;23;19993;-76
2023/04/08 08:04:08;;;;;;;0.80;0.65;;;;;;;;;;6245514;23;20007;-76
2023/04/08 08:06:34;;;;;;;0.98;0.80;;;16.80;74.10;;;;;;6245814;23;20006;-77
2023/04/08 08:09:00;;;;;;;2.38;0.60;;;17.10;84.40;;;;;;6245475;23;20012;-77
2023/04/08 08:11:26;;;;;;;0.88;0.70;;;17.10;84.70;;;;;;6245415;23;20020;-76
2023/04/08 08:13:53;;;;;;;2.65;0.93;;;17.00;84.70;;;;;;6245652;23;20011;-77
2023/04/08 08:16:19;;;;;;;0.90;0.60;;;17.20;84.50;;;;;;6245878;23;19996;-76
2023/04/08 08:18:45;;;;;;;1.73;0.73;;;17.10;84.70;;;;;;6245608;23;20000;-76
2023/04/08 08:21:11;;;;;;;2.15;0.70;;;17.20;74.80;;;;;;6255494;23;20011;-76
2023/04/08 08:23:36;;;;;;;0.80;0.80;;;17.10;84.60;;;;;;6255617;23;20001;-76
2023/04/08 08:26:05;;;;;;;0.80;0.60;;;17.20;55.90;;;;;;6255513;23;19992;-76
2023/04/08 08:28:31;;;;;;;0.60;0.60;;;;;;;;;;6255471;23;20024;-76
2023/04/08 08:30:57;;;;;;;2.88;0.70;;;17.10;63.00;;;;;;6255459;23;20004;-77
2023/04/08 08:33:23;;;;;;;0.85;0.63;;;17.10;84.40;;;;;;6255435;23;20004;-77
2023/04/08 08:35:49;;;;;;;0.60;0.60;;;16.80;84.20;;;;;;6255437;23;20000;-76
2023/04/08 08:38:16;;;;;;;0.73;0.70;;;17.30;84.60;;;;;;6255431;23;20004;-76
2023/04/08 08:40:43;;;;;;;0.70;0.70;;;17.00;84.50;;;;;;6255472;23;20048;-77
2023/04/08 08:43:10;;;;;;;0.60;0.60;;;17.30;84.60;;;;;;6255093;23;20351;-76
2023/04/08 08:45:40;;;;;;;0.43;0.43;;;17.30;60.50;;;;;;6255261;23;20004;-76
2023/04/08 08:48:07;;;;;;;0.52;0.50;;;17.20;84.70;;;;;;6255273;23;20004;-76
2023/04/08 08:50:33;;;;;;;0.55;0.55;;;17.10;78.10;;;;;;6255341;23;19996;-76
2023/04/08 08:52:59;;;;;;;1.48;0.82;;;17.20;84.50;;;;;;6255316;23;20008;-76
2023/04/08 08:55:26;;;;;;;0.60;0.50;;;16.90;84.20;;;;;;6245367;23;20415;-76
2023/04/08 08:57:52;;;;;;;0.80;0.80;;;17.10;84.60;;;;;;6244981;23;20514;-77
2023/04/08 09:00:29;;;;;;;0.80;0.80;;;17.20;84.30;;;;;;6245354;23;20031;-76
2023/04/08 09:02:55;;;;;;;2.13;0.68;;;17.00;84.40;;;;;;6244850;23;20439;-76
2023/04/08 09:05:21;;;;;;;0.50;0.47;;;17.10;84.30;;;;;;6244956;23;20027;-76
2023/04/08 09:07:47;;;;;;;0.50;0.50;;;17.30;84.50;;;;;;6244953;23;19996;-76
2023/04/08 09:10:13;;;;;;;0.60;0.60;;;17.40;84.80;;;;;;6245290;23;19992;-76
2023/04/08 09:13:06;;;;;;;0.50;0.50;;;17.30;84.70;;;;;;6245081;23;20007;-76
2023/04/08 09:15:32;;;;;;;0.98;0.88;;;;;;;;;;6211809;23;20003;-76
2023/04/08 09:17:58;;;;;;;0.60;0.60;;;;;;;;;;6244659;23;20400;-76
2023/04/08 09:20:24;;;;;;;0.88;0.70;;;17.40;84.50;;;;;;6245140;23;20066;-76
2023/04/08 09:22:57;;;;;;;0.70;0.70;;;17.30;84.50;;;;;;6255042;23;20455;-76
2023/04/08 09:25:32;;;;;;;0.60;0.60;;;17.20;84.20;;;;;;6254970;23;19996;-76
2023/04/08 09:27:59;;;;;;;0.60;0.50;;;17.30;84.40;;;;;;6254996;23;20068;-76
2023/04/08 09:30:26;;;;;;;0.88;0.60;;;17.20;84.40;;;;;;6245057;23;19996;-76
2023/04/08 09:32:56;;;;;;;0.77;0.68;;;17.30;84.40;;;;;;6254895;23;20083;-76
2023/04/08 09:35:22;;;;;;;;;;;17.30;56.20;;;;;;6255535;23;19992;-76
2023/04/08 09:37:49;;;;;;;1.08;0.98;;;17.40;75.60;;;;;;6254844;23;19899;-76
2023/04/08 09:40:16;;;;;;;0.82;0.60;;;17.30;84.40;;;;;;6244529;23;20453;-76
2023/04/08 09:42:49;;;;;;;1.05;0.75;;;17.40;84.60;;;;;;6244424;23;20004;-75
2023/04/08 09:45:17;;;;;;;0.80;0.80;;;17.40;84.30;;;;;;6245467;23;20075;-76
2023/04/08 09:47:59;;;;;;;0.70;0.70;;;17.40;55.50;;;;;;6244621;23;20003;-76
2023/04/08 09:50:31;;;;;;;1.00;0.90;;;17.10;84.20;;;;;;6254865;23;20004;-76
2023/04/08 09:53:25;;;;;;;1.25;0.80;;;17.30;84.60;;;;;;6244764;23;20062;-76
2023/04/08 09:55:54;;;;;;;1.10;0.80;;;17.30;84.10;;;;;;6219775;23;20000;-76
2023/04/08 09:58:27;;;;;;;0.90;0.90;;;17.70;84.30;;;;;;6254723;23;19992;-76
2023/04/08 10:00:54;;;;;;;1.90;0.73;;;17.70;62.30;;;;;;6244625;23;19996;-76
2023/04/08 10:03:32;;;;;;;0.80;0.80;;;17.60;83.70;;;;;;6254643;23;20000;-76
2023/04/08 10:06:01;;;;;;;0.98;0.90;;;17.80;84.00;;;;;;6254844;23;20178;-76
2023/04/08 10:08:26;;;;;;;1.60;1.45;;;18.00;83.70;;;;;;6244731;23;20027;-76
2023/04/08 10:10:54;;;;;;;1.02;0.93;;;18.10;83.70;;;;;;6254649;23;20000;-76
2023/04/08 10:13:21;;;;;;;2.33;2.13;;;17.90;60.50;;;;;;6244707;23;20101;-76
2023/04/08 10:15:48;;;;;;;1.95;1.85;;;17.90;83.10;;;;;;6244861;23;20000;-77
2023/04/08 10:18:17;;;;;;;1.48;1.38;;;18.30;83.00;;;;;;6244765;23;19996;-77
2023/04/08 10:20:46;;;;;;;2.78;1.52;;;18.20;54.20;;;;;;6244700;23;20003;-77
2023/04/08 10:23:15;;;;;;;2.45;2.15;;;18.50;82.80;;;;;;6244724;23;20000;-76
2023/04/08 10:25:40;;;;;;;6.07;5.45;;;;;;;;;;6244400;23;20503;-77
2023/04/08 10:28:16;;;;;;;2.25;2.05;;;18.60;75.00;;;;;;6244360;23;20004;-77
2023/04/08 10:30:44;;;;;;;1.33;1.23;;;18.40;82.30;;;;;;6244273;23;20004;-77
2023/04/08 10:33:33;;;;;;;1.80;1.70;;;18.60;54.10;;;;;;6244529;23;20356;-77
2023/04/08 10:36:11;;;;;;;3.13;2.75;;;18.70;82.00;;;;;;6244736;23;20059;-76
2023/04/08 10:38:46;;;;;;;4.18;2.63;;;18.70;82.20;;;;;;6244729;23;20374;-77
2023/04/08 10:41:13;;;;;;;3.30;3.00;;;;;;;;;;6244764;23;19997;-76
2023/04/08 10:43:39;;;;;;;1.75;1.65;;;18.80;82.20;;;;;;6244070;23;20016;-76
2023/04/08 10:46:05;;;;;;;1.25;1.15;;;18.80;82.00;;;;;;6244206;23;20004;-77
2023/04/08 10:48:31;;;;;;;1.20;1.10;;;19.30;82.10;;;;;;6244689;23;19996;-78
2023/04/08 10:50:59;;;;;;;3.00;2.60;;;19.30;82.00;;;;;;6244549;23;19996;-77
2023/04/08 10:53:30;;;;;;;1.85;1.75;;;19.30;63.10;;;;;;6244041;23;20008;-78
2023/04/08 10:56:06;;;;;;;0.98;0.98;;;19.00;81.70;;;;;;6244325;23;20027;-78
2023/04/08 10:58:33;;;;;;;1.00;1.00;;;19.60;82.00;;;;;;6244477;23;20000;-78
2023/04/08 11:01:04;;;;;;;2.45;1.10;;;19.20;81.40;;;;;;6246746;23;19996;-78
2023/04/08 11:03:32;;;;;;;1.38;1.27;;;19.30;81.40;;;;;;6246345;23;20359;-78
2023/04/08 11:06:00;;;;;;;1.00;1.00;;;19.50;53.30;;;;;;6246126;23;19992;-78
2023/04/08 11:08:31;;;;;;;1.33;1.23;;;19.60;53.10;;;;;;6245945;23;19996;-78
2023/04/08 11:11:00;;;;;;;1.20;1.02;;;19.50;81.40;;;;;;6256271;23;19996;-78
2023/04/08 11:13:26;;;;;;;1.38;1.27;;;19.80;81.40;;;;;;6255906;23;20424;-78
2023/04/08 11:15:51;;;;;;;1.13;1.00;;;19.90;81.50;;;;;;6256106;23;20007;-78
2023/04/08 11:18:17;;;;;;;0.90;0.90;;;19.90;81.20;;;;;;6256166;23;20004;-78
2023/04/08 11:20:43;;;;;;;0.90;0.90;;;19.70;81.40;;;;;;6246188;23;20359;-78
2023/04/08 11:23:13;;;;;;;0.73;0.73;;;20.10;71.30;;;;;;6246216;23;20370;-78
2023/04/08 11:25:41;;;;;;;1.10;1.00;;;19.80;81.40;;;;;;6246093;23;19992;-78
2023/04/08 11:28:07;;;;;;;1.10;1.00;;;20.10;77.60;;;;;;6245683;23;20003;-78
2023/04/08 11:30:34;;;;;;;1.10;1.00;;;19.90;81.20;;;;;;6245667;23;20031;-78
2023/04/08 11:33:00;;;;;;;0.80;0.80;;;20.10;81.20;;;;;;6246020;23;20035;-78
2023/04/08 11:35:30;;;;;;;0.88;0.88;;;20.10;65.10;;;;;;6246028;23;20026;-77
2023/04/08 11:37:57;;;;;;;0.90;0.90;;;20.50;59.60;;;;;;6245819;23;20031;-78
2023/04/08 11:40:23;;;;;;;0.90;0.90;;;20.40;81.00;;;;;;6246051;23;19992;-78
2023/04/08 11:42:50;;;;;;;0.73;0.73;;;20.10;80.80;;;;;;6245745;23;20012;-77
2023/04/08 11:45:18;;;;;;;1.10;1.10;;;20.50;80.90;;;;;;6246017;23;20004;-78
2023/04/08 11:47:46;;;;;;;0.80;0.80;;;;;;;;;;6245637;23;20000;-78
2023/04/08 11:50:12;;;;;;;1.05;0.90;;;20.90;65.00;;;;;;6246036;23;20071;-78
2023/04/08 11:52:44;;;;;;;1.25;0.80;;;20.90;80.80;;;;;;6245541;23;20002;-78
2023/04/08 11:55:11;;;;;;;1.23;1.13;;;20.60;80.20;;;;;;6246036;23;20035;-78
2023/04/08 11:57:38;;;;;;;0.73;0.70;;;21.10;79.70;;;;;;6245548;23;20027;-78
2023/04/08 12:00:06;;;;;;;0.93;0.80;;;20.80;79.10;;;;;;6245955;23;20003;-78
2023/04/08 12:02:32;;;;;;;0.90;0.90;;;20.90;64.40;;;;;;6245815;23;19999;-78
2023/04/08 12:04:58;;;;;;;1.50;1.17;;;21.00;79.40;;;;;;6245788;23;20001;-78
2023/04/08 12:07:24;;;;;;;1.20;0.88;;;21.30;79.40;;;;;;6245841;23;19997;-78
2023/04/08 12:09:50;;;;;;;0.93;0.93;;;21.20;79.10;;;;;;6245501;23;19996;-78
2023/04/08 12:12:15;;;;;;;0.80;0.80;;;20.90;78.90;;;;;;6255486;23;19996;-78
2023/04/08 12:14:41;;;;;;;0.95;0.85;;;21.00;79.30;;;;;;6255529;23;20004;-78
2023/04/08 12:17:07;;;;;;;4.53;3.20;;;21.20;78.40;;;;;;6255783;23;19993;-78
2023/04/08 12:19:32;;;;;;;1.73;1.63;;;21.80;78.70;;;;;;6255759;23;20000;-78
2023/04/08 12:21:58;;;;;;;0.73;0.73;;;21.60;78.80;;;;;;6255511;23;19996;-78
2023/04/08 12:24:23;;;;;;;0.70;0.57;;;21.20;78.90;;;;;;6255511;23;20000;-78
2023/04/08 12:26:49;;;;;;;1.02;0.68;;;21.70;79.20;;;;;;6255580;23;20029;-76
2023/04/08 12:29:15;;;;;;;3.67;1.65;;;21.70;79.10;;;;;;6255471;23;20070;-78
2023/04/08 12:31:41;;;;;;;1.55;1.45;;;;;;;;;;6255551;23;20072;-76
2023/04/08 12:34:06;;;;;;;3.28;1.80;;;21.80;78.60;;;;;;6255435;23;20103;-77
2023/04/08 12:36:32;;;;;;;1.08;0.98;;;21.90;79.10;;;;;;6245523;23;19996;-77
2023/04/08 12:38:59;;;;;;;2.08;1.10;;;;;;;;;;6245163;23;20451;-77
2023/04/08 12:41:26;;;;;;;2.25;1.15;;;22.00;78.60;;;;;;6245534;23;20005;-77
2023/04/08 12:43:52;;;;;;;0.90;0.90;;;21.70;78.70;;;;;;6245114;23;20343;-77
2023/04/08 12:46:17;;;;;;;1.60;1.08;;;22.10;78.50;;;;;;6245348;23;19998;-77
2023/04/08 12:48:44;;;;;;;1.70;1.10;;;21.50;77.80;;;;;;6245556;23;20015;-77
2023/04/08 12:51:10;;;;;;;1.25;0.93;;;22.30;77.80;;;;;;6245583;23;19999;-77